sensor_id;sensor_type;location;lat;lon;timestamp;pressure;altitude;pressure_sealevel;temperature;humidity
41690;BME280;27372;42.658;23.256;2023-03-31T00:00:35;93762.28;;;8.66;53.30
41690;BME280;27372;42.658;23.256;2023-03-31T00:03:00;93751.03;;;8.77;51.94
41690;BME280;27372;42.658;23.256;2023-03-31T00:05:27;93743.91;;;8.96;51.29
41690;BME280;27372;42.658;23.256;2023-03-31T00:07:53;93755.59;;;8.82;52.03
41690;BME280;27372;42.658;23.256;2023-03-31T00:10:20;93766.66;;;8.72;53.26
41690;BME280;27372;42.658;23.256;2023-03-31T00:12:46;93757.09;;;8.78;51.49
41690;BME280;27372;42.658;23.256;2023-03-31T00:15:12;93751.53;;;8.98;51.42
41690;BME280;27372;42.658;23.256;2023-03-31T00:17:38;93745.31;;;8.57;52.66
41690;BME280;27372;42.658;23.256;2023-03-31T00:20:04;93738.66;;;8.84;51.44
41690;BME280;27372;42.658;23.256;2023-03-31T00:22:32;93749.38;;;9.07;50.78
41690;BME280;27372;42.658;23.256;2023-03-31T00:24:58;93741.28;;;9.08;50.50
41690;BME280;27372;42.658;23.256;2023-03-31T00:27:24;93743.22;;;9.13;51.07
41690;BME280;27372;42.658;23.256;2023-03-31T00:29:52;93748.72;;;9.35;50.33
41690;BME280;27372;42.658;23.256;2023-03-31T00:32:17;93751.66;;;9.39;51.29
41690;BME280;27372;42.658;23.256;2023-03-31T00:34:46;93743.75;;;9.62;50.46
41690;BME280;27372;42.658;23.256;2023-03-31T00:37:11;93746.44;;;9.39;50.65
41690;BME280;27372;42.658;23.256;2023-03-31T00:39:41;93745.84;;;9.37;50.85
41690;BME280;27372;42.658;23.256;2023-03-31T00:42:09;93735.34;;;9.60;50.48
41690;BME280;27372;42.658;23.256;2023-03-31T00:47:48;93742.13;;;9.85;49.83
41690;BME280;27372;42.658;23.256;2023-03-31T00:50:17;93733.78;;;9.88;49.38
41690;BME280;27372;42.658;23.256;2023-03-31T00:52:46;93731.25;;;9.93;49.63
41690;BME280;27372;42.658;23.256;2023-03-31T00:55:21;93725.63;;;9.73;50.06
41690;BME280;27372;42.658;23.256;2023-03-31T00:57:48;93717.84;;;9.13;52.57
41690;BME280;27372;42.658;23.256;2023-03-31T01:00:17;93712.25;;;8.98;52.52
41690;BME280;27372;42.658;23.256;2023-03-31T01:02:50;93720.69;;;9.24;51.62
41690;BME280;27372;42.658;23.256;2023-03-31T01:06:00;93715.88;;;8.97;52.34
41690;BME280;27372;42.658;23.256;2023-03-31T01:08:19;93704.84;;;9.19;50.62
41690;BME280;27372;42.658;23.256;2023-03-31T01:10:51;93707.59;;;9.24;51.30
41690;BME280;27372;42.658;23.256;2023-03-31T01:13:17;93710.41;;;9.46;51.06
41690;BME280;27372;42.658;23.256;2023-03-31T01:15:44;93704.84;;;9.30;51.56
41690;BME280;27372;42.658;23.256;2023-03-31T01:18:11;93698.22;;;9.40;51.90
41690;BME280;27372;42.658;23.256;2023-03-31T01:26:22;93712.84;;;9.76;51.44
41690;BME280;27372;42.658;23.256;2023-03-31T01:40:59;93739.63;;;8.60;56.93
41690;BME280;27372;42.658;23.256;2023-03-31T01:43:46;93735.22;;;8.72;56.93
41690;BME280;27372;42.658;23.256;2023-03-31T01:48:51;93742.50;;;8.70;55.80
41690;BME280;27372;42.658;23.256;2023-03-31T01:51:24;93741.81;;;8.63;56.66
41690;BME280;27372;42.658;23.256;2023-03-31T01:56:32;93742.84;;;8.74;54.37
41690;BME280;27372;42.658;23.256;2023-03-31T01:59:05;93749.78;;;8.68;57.18
41690;BME280;27372;42.658;23.256;2023-03-31T02:01:40;93735.22;;;8.72;56.70
41690;BME280;27372;42.658;23.256;2023-03-31T02:04:23;93735.34;;;8.77;55.26
41690;BME280;27372;42.658;23.256;2023-03-31T02:06:54;93754.13;;;8.44;60.39
41690;BME280;27372;42.658;23.256;2023-03-31T02:09:25;93759.00;;;8.70;58.76
41690;BME280;27372;42.658;23.256;2023-03-31T02:11:54;93760.63;;;8.83;55.52
41690;BME280;27372;42.658;23.256;2023-03-31T02:14:23;93753.47;;;8.91;52.67
41690;BME280;27372;42.658;23.256;2023-03-31T02:16:52;93763.38;;;9.36;51.35
41690;BME280;27372;42.658;23.256;2023-03-31T02:19:24;93760.41;;;9.68;49.05
41690;BME280;27372;42.658;23.256;2023-03-31T02:21:51;93773.47;;;9.92;49.91
41690;BME280;27372;42.658;23.256;2023-03-31T02:24:20;93754.56;;;9.78;52.61
41690;BME280;27372;42.658;23.256;2023-03-31T02:26:55;93777.94;;;9.91;52.40
41690;BME280;27372;42.658;23.256;2023-03-31T02:29:22;93793.69;;;9.79;54.83
41690;BME280;27372;42.658;23.256;2023-03-31T02:34:43;93790.31;;;9.43;59.12
41690;BME280;27372;42.658;23.256;2023-03-31T02:37:12;93796.34;;;9.32;59.27
41690;BME280;27372;42.658;23.256;2023-03-31T02:39:42;93800.75;;;9.31;60.66
41690;BME280;27372;42.658;23.256;2023-03-31T02:42:09;93813.13;;;8.89;62.84
41690;BME280;27372;42.658;23.256;2023-03-31T02:44:36;93814.63;;;8.84;64.58
41690;BME280;27372;42.658;23.256;2023-03-31T02:47:05;93802.91;;;8.57;67.57
41690;BME280;27372;42.658;23.256;2023-03-31T02:49:32;93790.34;;;8.47;68.14
41690;BME280;27372;42.658;23.256;2023-03-31T02:57:42;93766.72;;;8.04;73.63
41690;BME280;27372;42.658;23.256;2023-03-31T03:14:43;93728.25;;;7.74;78.51
41690;BME280;27372;42.658;23.256;2023-03-31T03:19:40;93710.75;;;7.75;77.24
41690;BME280;27372;42.658;23.256;2023-03-31T03:22:06;93711.16;;;7.90;76.32
41690;BME280;27372;42.658;23.256;2023-03-31T03:24:32;93717.41;;;7.89;78.00
41690;BME280;27372;42.658;23.256;2023-03-31T03:27:09;93710.84;;;7.99;76.37
41690;BME280;27372;42.658;23.256;2023-03-31T03:29:34;93719.59;;;7.92;76.64
41690;BME280;27372;42.658;23.256;2023-03-31T03:32:01;93722.09;;;8.18;73.06
41690;BME280;27372;42.658;23.256;2023-03-31T03:34:27;93719.75;;;8.40;70.71
41690;BME280;27372;42.658;23.256;2023-03-31T03:36:52;93706.75;;;8.76;68.05
41690;BME280;27372;42.658;23.256;2023-03-31T03:39:18;93707.88;;;8.68;68.74
41690;BME280;27372;42.658;23.256;2023-03-31T03:41:43;93718.59;;;8.78;68.64
41690;BME280;27372;42.658;23.256;2023-03-31T03:44:09;93697.41;;;8.68;69.49
41690;BME280;27372;42.658;23.256;2023-03-31T03:46:34;93700.50;;;8.89;69.50
41690;BME280;27372;42.658;23.256;2023-03-31T03:48:59;93696.88;;;8.90;68.16
41690;BME280;27372;42.658;23.256;2023-03-31T03:51:28;93684.34;;;8.92;67.68
41690;BME280;27372;42.658;23.256;2023-03-31T03:53:53;93698.22;;;8.80;69.00
41690;BME280;27372;42.658;23.256;2023-03-31T03:56:19;93698.78;;;9.06;68.95
41690;BME280;27372;42.658;23.256;2023-03-31T03:58:46;93692.53;;;8.95;66.99
41690;BME280;27372;42.658;23.256;2023-03-31T04:01:14;93711.22;;;9.11;66.61
41690;BME280;27372;42.658;23.256;2023-03-31T04:03:40;93699.94;;;9.10;66.19
41690;BME280;27372;42.658;23.256;2023-03-31T04:06:09;93718.03;;;9.12;65.54
41690;BME280;27372;42.658;23.256;2023-03-31T04:08:38;93709.50;;;9.16;65.26
41690;BME280;27372;42.658;23.256;2023-03-31T04:11:17;93718.28;;;9.10;65.14
41690;BME280;27372;42.658;23.256;2023-03-31T04:13:45;93720.13;;;9.10;65.34
41690;BME280;27372;42.658;23.256;2023-03-31T04:16:11;93719.88;;;8.99;66.44
41690;BME280;27372;42.658;23.256;2023-03-31T04:18:37;93717.13;;;8.94;66.11
41690;BME280;27372;42.658;23.256;2023-03-31T04:21:07;93709.38;;;8.88;66.37
41690;BME280;27372;42.658;23.256;2023-03-31T04:23:37;93714.72;;;8.81;66.55
41690;BME280;27372;42.658;23.256;2023-03-31T04:26:07;93723.84;;;8.78;67.50
41690;BME280;27372;42.658;23.256;2023-03-31T04:28:34;93722.81;;;8.79;67.26
41690;BME280;27372;42.658;23.256;2023-03-31T04:31:04;93722.59;;;8.81;67.03
41690;BME280;27372;42.658;23.256;2023-03-31T04:33:33;93723.94;;;8.72;67.41
41690;BME280;27372;42.658;23.256;2023-03-31T04:36:03;93733.66;;;8.95;65.83
41690;BME280;27372;42.658;23.256;2023-03-31T04:38:31;93734.22;;;8.85;66.24
41690;BME280;27372;42.658;23.256;2023-03-31T04:40:58;93721.47;;;8.89;66.79
41690;BME280;27372;42.658;23.256;2023-03-31T04:43:24;93706.09;;;8.80;66.85
41690;BME280;27372;42.658;23.256;2023-03-31T04:45:50;93707.91;;;8.80;66.06
41690;BME280;27372;42.658;23.256;2023-03-31T04:48:15;93715.66;;;8.75;67.91
41690;BME280;27372;42.658;23.256;2023-03-31T04:50:41;93706.38;;;8.60;67.76
41690;BME280;27372;42.658;23.256;2023-03-31T04:53:06;93701.56;;;8.45;68.46
41690;BME280;27372;42.658;23.256;2023-03-31T04:55:32;93692.56;;;8.41;68.13
41690;BME280;27372;42.658;23.256;2023-03-31T04:57:58;93686.47;;;8.47;68.26
41690;BME280;27372;42.658;23.256;2023-03-31T05:00:23;93691.59;;;8.54;67.16
41690;BME280;27372;42.658;23.256;2023-03-31T05:02:49;93688.44;;;8.64;67.00
41690;BME280;27372;42.658;23.256;2023-03-31T05:05:17;93701.09;;;8.91;63.86
41690;BME280;27372;42.658;23.256;2023-03-31T05:07:43;93672.22;;;9.38;60.36
41690;BME280;27372;42.658;23.256;2023-03-31T05:10:09;93669.31;;;9.63;58.44
41690;BME280;27372;42.658;23.256;2023-03-31T05:12:35;93688.59;;;9.98;56.50
41690;BME280;27372;42.658;23.256;2023-03-31T05:15:06;93686.50;;;10.12;55.78
41690;BME280;27372;42.658;23.256;2023-03-31T05:17:32;93670.69;;;10.24;54.84
41690;BME280;27372;42.658;23.256;2023-03-31T05:19:58;93672.59;;;10.29;55.38
41690;BME280;27372;42.658;23.256;2023-03-31T05:22:24;93687.69;;;10.50;54.04
41690;BME280;27372;42.658;23.256;2023-03-31T05:24:50;93669.78;;;10.47;53.82
41690;BME280;27372;42.658;23.256;2023-03-31T05:27:15;93665.09;;;10.49;54.15
41690;BME280;27372;42.658;23.256;2023-03-31T05:29:49;93655.78;;;10.59;53.96
41690;BME280;27372;42.658;23.256;2023-03-31T05:32:15;93670.75;;;10.58;53.67
41690;BME280;27372;42.658;23.256;2023-03-31T05:34:43;93662.78;;;10.53;54.41
41690;BME280;27372;42.658;23.256;2023-03-31T05:37:08;93650.84;;;10.62;53.59
41690;BME280;27372;42.658;23.256;2023-03-31T05:39:36;93652.66;;;10.79;52.79
41690;BME280;27372;42.658;23.256;2023-03-31T05:42:02;93657.22;;;10.83;52.75
41690;BME280;27372;42.658;23.256;2023-03-31T05:44:30;93659.72;;;11.12;53.18
41690;BME280;27372;42.658;23.256;2023-03-31T05:46:55;93653.66;;;11.12;52.19
41690;BME280;27372;42.658;23.256;2023-03-31T05:49:20;93633.63;;;11.06;52.02
41690;BME280;27372;42.658;23.256;2023-03-31T05:51:46;93644.88;;;11.23;51.67
41690;BME280;27372;42.658;23.256;2023-03-31T05:54:12;93663.16;;;11.13;51.21
41690;BME280;27372;42.658;23.256;2023-03-31T05:56:38;93676.44;;;11.23;51.34
41690;BME280;27372;42.658;23.256;2023-03-31T05:59:04;93658.50;;;11.20;50.62
41690;BME280;27372;42.658;23.256;2023-03-31T06:01:35;93670.63;;;11.04;52.12
41690;BME280;27372;42.658;23.256;2023-03-31T06:04:04;93661.25;;;11.30;54.54
41690;BME280;27372;42.658;23.256;2023-03-31T06:06:30;93665.69;;;11.47;52.93
41690;BME280;27372;42.658;23.256;2023-03-31T06:08:57;93642.69;;;11.81;66.49
41690;BME280;27372;42.658;23.256;2023-03-31T06:11:22;93653.69;;;12.01;59.58
41690;BME280;27372;42.658;23.256;2023-03-31T06:13:51;93671.31;;;11.78;54.48
41690;BME280;27372;42.658;23.256;2023-03-31T06:19:42;93649.59;;;11.88;58.37
41690;BME280;27372;42.658;23.256;2023-03-31T06:22:07;93664.28;;;12.06;61.98
41690;BME280;27372;42.658;23.256;2023-03-31T06:24:33;93650.63;;;12.69;63.03
41690;BME280;27372;42.658;23.256;2023-03-31T06:26:58;93660.34;;;12.36;52.18
41690;BME280;27372;42.658;23.256;2023-03-31T06:29:26;93663.00;;;11.86;50.44
41690;BME280;27372;42.658;23.256;2023-03-31T06:31:51;93661.59;;;11.56;51.34
41690;BME280;27372;42.658;23.256;2023-03-31T06:34:18;93651.78;;;11.29;52.44
41690;BME280;27372;42.658;23.256;2023-03-31T06:36:45;93658.16;;;11.33;52.28
41690;BME280;27372;42.658;23.256;2023-03-31T06:39:10;93679.75;;;10.96;52.81
41690;BME280;27372;42.658;23.256;2023-03-31T06:41:35;93665.00;;;11.12;53.86
41690;BME280;27372;42.658;23.256;2023-03-31T06:44:03;93655.88;;;11.20;53.45
41690;BME280;27372;42.658;23.256;2023-03-31T06:46:28;93662.81;;;11.26;53.19
41690;BME280;27372;42.658;23.256;2023-03-31T06:48:57;93696.88;;;11.60;52.43
41690;BME280;27372;42.658;23.256;2023-03-31T06:51:26;93665.41;;;11.43;52.32
41690;BME280;27372;42.658;23.256;2023-03-31T06:53:51;93671.31;;;11.33;52.34
41690;BME280;27372;42.658;23.256;2023-03-31T06:56:17;93696.22;;;11.09;52.33
41690;BME280;27372;42.658;23.256;2023-03-31T06:58:46;93673.88;;;11.28;51.82
41690;BME280;27372;42.658;23.256;2023-03-31T07:01:14;93672.72;;;11.02;52.65
41690;BME280;27372;42.658;23.256;2023-03-31T07:03:39;93670.56;;;11.16;53.12
41690;BME280;27372;42.658;23.256;2023-03-31T07:06:05;93656.06;;;11.13;54.97
41690;BME280;27372;42.658;23.256;2023-03-31T07:08:31;93644.28;;;11.16;53.56
41690;BME280;27372;42.658;23.256;2023-03-31T07:11:01;93648.84;;;11.26;53.68
41690;BME280;27372;42.658;23.256;2023-03-31T07:13:27;93637.81;;;11.46;53.59
41690;BME280;27372;42.658;23.256;2023-03-31T07:15:53;93625.56;;;11.79;53.17
41690;BME280;27372;42.658;23.256;2023-03-31T07:18:18;93635.03;;;12.02;53.29
41690;BME280;27372;42.658;23.256;2023-03-31T07:20:47;93630.09;;;11.84;54.42
41690;BME280;27372;42.658;23.256;2023-03-31T07:23:14;93628.97;;;12.02;54.03
41690;BME280;27372;42.658;23.256;2023-03-31T07:25:39;93637.97;;;11.84;52.92
41690;BME280;27372;42.658;23.256;2023-03-31T07:28:05;93645.84;;;12.06;52.07
41690;BME280;27372;42.658;23.256;2023-03-31T07:30:31;93645.25;;;11.99;52.23
41690;BME280;27372;42.658;23.256;2023-03-31T07:32:57;93609.47;;;11.98;52.44
41690;BME280;27372;42.658;23.256;2023-03-31T07:35:22;93602.88;;;12.27;52.50
41690;BME280;27372;42.658;23.256;2023-03-31T07:37:49;93602.06;;;12.27;52.30
41690;BME280;27372;42.658;23.256;2023-03-31T07:40:24;93645.38;;;12.09;53.94
41690;BME280;27372;42.658;23.256;2023-03-31T07:42:50;93632.88;;;12.26;53.06
41690;BME280;27372;42.658;23.256;2023-03-31T07:45:20;93615.50;;;12.25;51.92
41690;BME280;27372;42.658;23.256;2023-03-31T07:47:46;93590.41;;;12.18;53.29
41690;BME280;27372;42.658;23.256;2023-03-31T07:50:13;93611.81;;;12.26;53.41
41690;BME280;27372;42.658;23.256;2023-03-31T07:52:42;93605.41;;;12.50;52.37
41690;BME280;27372;42.658;23.256;2023-03-31T07:55:14;93622.78;;;12.83;51.59
41690;BME280;27372;42.658;23.256;2023-03-31T07:57:44;93617.34;;;13.00;51.23
41690;BME280;27372;42.658;23.256;2023-03-31T08:00:14;93629.78;;;12.67;50.72
41690;BME280;27372;42.658;23.256;2023-03-31T08:02:40;93604.31;;;12.78;51.22
41690;BME280;27372;42.658;23.256;2023-03-31T08:05:10;93597.41;;;13.20;50.85
41690;BME280;27372;42.658;23.256;2023-03-31T08:07:37;93594.13;;;13.45;49.21
41690;BME280;27372;42.658;23.256;2023-03-31T08:10:05;93607.13;;;13.09;49.09
41690;BME280;27372;42.658;23.256;2023-03-31T08:12:32;93604.44;;;13.04;49.85
41690;BME280;27372;42.658;23.256;2023-03-31T08:14:57;93594.13;;;12.97;49.35
41690;BME280;27372;42.658;23.256;2023-03-31T08:17:22;93583.13;;;13.05;49.40
41690;BME280;27372;42.658;23.256;2023-03-31T08:19:56;93588.59;;;12.94;48.57
41690;BME280;27372;42.658;23.256;2023-03-31T08:22:21;93580.38;;;13.38;48.96
41690;BME280;27372;42.658;23.256;2023-03-31T08:24:47;93579.16;;;13.56;48.11
41690;BME280;27372;42.658;23.256;2023-03-31T08:27:13;93597.88;;;13.65;47.63
41690;BME280;27372;42.658;23.256;2023-03-31T08:29:38;93572.09;;;13.14;47.94
41690;BME280;27372;42.658;23.256;2023-03-31T08:32:04;93593.16;;;13.09;49.37
41690;BME280;27372;42.658;23.256;2023-03-31T08:34:31;93583.72;;;12.75;48.99
41690;BME280;27372;42.658;23.256;2023-03-31T08:36:56;93596.88;;;12.70;49.91
41690;BME280;27372;42.658;23.256;2023-03-31T08:39:22;93605.03;;;12.68;49.07
41690;BME280;27372;42.658;23.256;2023-03-31T08:42:01;93592.72;;;12.41;48.98
41690;BME280;27372;42.658;23.256;2023-03-31T08:44:40;93588.03;;;12.49;49.63
41690;BME280;27372;42.658;23.256;2023-03-31T08:47:14;93596.91;;;12.75;50.36
41690;BME280;27372;42.658;23.256;2023-03-31T08:49:56;93591.53;;;13.50;47.24
41690;BME280;27372;42.658;23.256;2023-03-31T08:52:30;93595.28;;;13.70;54.51
41690;BME280;27372;42.658;23.256;2023-03-31T08:55:12;93574.00;;;14.18;47.23
41690;BME280;27372;42.658;23.256;2023-03-31T08:58:26;93580.31;;;14.07;51.14
41690;BME280;27372;42.658;23.256;2023-03-31T09:06:23;93578.38;;;13.61;48.19
41690;BME280;27372;42.658;23.256;2023-03-31T09:08:54;93584.22;;;13.89;45.77
41690;BME280;27372;42.658;23.256;2023-03-31T09:11:41;93580.06;;;14.13;45.92
41690;BME280;27372;42.658;23.256;2023-03-31T09:14:47;93579.78;;;14.05;45.06
41690;BME280;27372;42.658;23.256;2023-03-31T09:17:30;93576.09;;;14.21;44.74
41690;BME280;27372;42.658;23.256;2023-03-31T09:20:27;93573.19;;;14.18;45.57
41690;BME280;27372;42.658;23.256;2023-03-31T09:22:59;93584.03;;;14.88;44.39
41690;BME280;27372;42.658;23.256;2023-03-31T09:25:27;93596.16;;;14.64;44.32
41690;BME280;27372;42.658;23.256;2023-03-31T09:27:56;93561.28;;;14.20;44.56
41690;BME280;27372;42.658;23.256;2023-03-31T09:30:29;93552.31;;;14.16;44.57
41690;BME280;27372;42.658;23.256;2023-03-31T09:33:17;93571.03;;;14.87;45.21
41690;BME280;27372;42.658;23.256;2023-03-31T09:36:00;93577.16;;;14.72;42.38
41690;BME280;27372;42.658;23.256;2023-03-31T09:38:26;93568.97;;;14.53;43.58
41690;BME280;27372;42.658;23.256;2023-03-31T09:41:01;93593.28;;;14.81;43.03
41690;BME280;27372;42.658;23.256;2023-03-31T09:43:39;93569.75;;;14.58;44.38
41690;BME280;27372;42.658;23.256;2023-03-31T09:46:25;93552.59;;;14.09;44.34
41690;BME280;27372;42.658;23.256;2023-03-31T09:49:08;93550.47;;;14.27;45.16
41690;BME280;27372;42.658;23.256;2023-03-31T09:51:36;93545.47;;;14.25;44.55
41690;BME280;27372;42.658;23.256;2023-03-31T09:54:27;93560.50;;;14.40;44.26
41690;BME280;27372;42.658;23.256;2023-03-31T09:57:13;93548.34;;;14.60;45.18
41690;BME280;27372;42.658;23.256;2023-03-31T09:59:39;93531.44;;;14.04;44.92
41690;BME280;27372;42.658;23.256;2023-03-31T10:02:41;93558.38;;;13.91;46.19
41690;BME280;27372;42.658;23.256;2023-03-31T10:05:37;93542.81;;;13.94;45.81
41690;BME280;27372;42.658;23.256;2023-03-31T10:10:43;93531.16;;;13.64;46.15
41690;BME280;27372;42.658;23.256;2023-03-31T10:13:15;93539.63;;;13.82;44.88
41690;BME280;27372;42.658;23.256;2023-03-31T10:15:41;93530.91;;;13.81;45.66
41690;BME280;27372;42.658;23.256;2023-03-31T10:18:18;93525.59;;;13.66;46.65
41690;BME280;27372;42.658;23.256;2023-03-31T10:21:17;93518.75;;;13.70;45.57
41690;BME280;27372;42.658;23.256;2023-03-31T10:23:50;93514.81;;;13.93;45.06
41690;BME280;27372;42.658;23.256;2023-03-31T10:29:31;93521.69;;;13.94;45.38
41690;BME280;27372;42.658;23.256;2023-03-31T10:32:27;93512.69;;;13.85;44.80
41690;BME280;27372;42.658;23.256;2023-03-31T10:35:32;93492.91;;;13.88;45.37
41690;BME280;27372;42.658;23.256;2023-03-31T10:38:29;93490.00;;;13.84;45.51
41690;BME280;27372;42.658;23.256;2023-03-31T10:40:58;93521.16;;;13.87;44.52
41690;BME280;27372;42.658;23.256;2023-03-31T10:43:43;93501.09;;;14.07;45.06
41690;BME280;27372;42.658;23.256;2023-03-31T10:46:12;93493.69;;;13.93;44.33
41690;BME280;27372;42.658;23.256;2023-03-31T10:48:42;93475.47;;;14.18;44.49
41690;BME280;27372;42.658;23.256;2023-03-31T10:51:29;93491.31;;;14.07;44.47
41690;BME280;27372;42.658;23.256;2023-03-31T10:54:01;93477.81;;;14.40;43.94
41690;BME280;27372;42.658;23.256;2023-03-31T10:56:50;93466.25;;;14.15;44.46
41690;BME280;27372;42.658;23.256;2023-03-31T10:59:32;93474.06;;;14.72;43.93
41690;BME280;27372;42.658;23.256;2023-03-31T11:02:17;93489.03;;;15.07;43.27
41690;BME280;27372;42.658;23.256;2023-03-31T11:13:02;93471.13;;;14.94;42.35
41690;BME280;27372;42.658;23.256;2023-03-31T11:15:48;93469.31;;;14.74;43.47
41690;BME280;27372;42.658;23.256;2023-03-31T11:24:04;93448.47;;;14.62;43.02
41690;BME280;27372;42.658;23.256;2023-03-31T11:29:35;93442.28;;;14.98;42.96
41690;BME280;27372;42.658;23.256;2023-03-31T11:35:14;93439.41;;;15.79;41.96
41690;BME280;27372;42.658;23.256;2023-03-31T11:46:16;93430.09;;;15.87;42.26
41690;BME280;27372;42.658;23.256;2023-03-31T11:48:53;93412.53;;;16.01;42.50
41690;BME280;27372;42.658;23.256;2023-03-31T11:51:30;93414.41;;;16.25;42.80
41690;BME280;27372;42.658;23.256;2023-03-31T11:54:04;93399.19;;;16.11;43.41
41690;BME280;27372;42.658;23.256;2023-03-31T11:56:38;93393.63;;;16.37;42.43
41690;BME280;27372;42.658;23.256;2023-03-31T11:59:10;93397.84;;;16.38;42.08
41690;BME280;27372;42.658;23.256;2023-03-31T12:02:22;93391.25;;;16.36;41.88
41690;BME280;27372;42.658;23.256;2023-03-31T12:04:54;93394.75;;;16.31;42.12
41690;BME280;27372;42.658;23.256;2023-03-31T12:07:28;93388.41;;;16.03;42.87
41690;BME280;27372;42.658;23.256;2023-03-31T12:12:58;93382.63;;;16.49;41.38
41690;BME280;27372;42.658;23.256;2023-03-31T12:15:31;93375.50;;;16.69;41.04
41690;BME280;27372;42.658;23.256;2023-03-31T12:18:40;93390.09;;;16.47;41.60
41690;BME280;27372;42.658;23.256;2023-03-31T12:21:10;93371.41;;;15.74;42.18
41690;BME280;27372;42.658;23.256;2023-03-31T12:23:43;93370.72;;;15.93;41.64
41690;BME280;27372;42.658;23.256;2023-03-31T12:28:44;93376.47;;;17.02;40.85
41690;BME280;27372;42.658;23.256;2023-03-31T12:31:17;93369.00;;;17.23;40.20
41690;BME280;27372;42.658;23.256;2023-03-31T12:33:52;93371.53;;;17.67;39.64
41690;BME280;27372;42.658;23.256;2023-03-31T12:36:53;93368.06;;;17.66;39.19
41690;BME280;27372;42.658;23.256;2023-03-31T12:49:03;93362.66;;;17.58;39.33
41690;BME280;27372;42.658;23.256;2023-03-31T12:57:18;93332.81;;;18.27;38.13
41690;BME280;27372;42.658;23.256;2023-03-31T12:59:44;93326.53;;;18.87;37.24
41690;BME280;27372;42.658;23.256;2023-03-31T13:04:36;93310.94;;;20.31;34.22
41690;BME280;27372;42.658;23.256;2023-03-31T13:07:03;93306.84;;;20.74;34.95
41690;BME280;27372;42.658;23.256;2023-03-31T13:09:44;93309.03;;;21.86;32.68
41690;BME280;27372;42.658;23.256;2023-03-31T13:12:15;93289.25;;;22.64;31.08
41690;BME280;27372;42.658;23.256;2023-03-31T13:14:44;93279.03;;;23.30;30.05
41690;BME280;27372;42.658;23.256;2023-03-31T13:17:33;93269.34;;;23.59;29.80
41690;BME280;27372;42.658;23.256;2023-03-31T13:20:25;93258.81;;;23.54;29.46
41690;BME280;27372;42.658;23.256;2023-03-31T13:25:56;93239.41;;;23.02;30.16
41690;BME280;27372;42.658;23.256;2023-03-31T13:31:02;93221.59;;;24.85;27.82
41690;BME280;27372;42.658;23.256;2023-03-31T13:55:55;93184.44;;;22.41;30.79
41690;BME280;27372;42.658;23.256;2023-03-31T13:58:39;93173.44;;;22.34;30.61
41690;BME280;27372;42.658;23.256;2023-03-31T14:04:55;93175.53;;;22.92;30.30
41690;BME280;27372;42.658;23.256;2023-03-31T14:07:40;93171.59;;;22.26;30.74
41690;BME280;27372;42.658;23.256;2023-03-31T14:10:27;93171.97;;;22.15;30.80
41690;BME280;27372;42.658;23.256;2023-03-31T14:13:23;93173.97;;;21.50;31.64
41690;BME280;27372;42.658;23.256;2023-03-31T14:15:52;93177.88;;;19.94;33.91
41690;BME280;27372;42.658;23.256;2023-03-31T14:21:44;93173.09;;;19.74;35.19
41690;BME280;27372;42.658;23.256;2023-03-31T14:24:28;93169.50;;;20.54;33.32
41690;BME280;27372;42.658;23.256;2023-03-31T14:29:55;93147.53;;;22.26;31.29
41690;BME280;27372;42.658;23.256;2023-03-31T14:32:39;93159.97;;;22.52;30.32
41690;BME280;27372;42.658;23.256;2023-03-31T14:35:31;93151.66;;;21.54;32.13
41690;BME280;27372;42.658;23.256;2023-03-31T14:37:58;93155.66;;;22.08;31.52
41690;BME280;27372;42.658;23.256;2023-03-31T14:40:28;93148.59;;;22.76;30.60
41690;BME280;27372;42.658;23.256;2023-03-31T14:42:53;93138.94;;;23.17;29.50
41690;BME280;27372;42.658;23.256;2023-03-31T14:45:30;93142.66;;;22.91;29.95
41690;BME280;27372;42.658;23.256;2023-03-31T14:48:10;93134.91;;;23.57;29.08
41690;BME280;27372;42.658;23.256;2023-03-31T14:50:41;93125.53;;;24.25;28.61
41690;BME280;27372;42.658;23.256;2023-03-31T14:53:15;93132.56;;;24.30;28.33
41690;BME280;27372;42.658;23.256;2023-03-31T14:55:41;93128.91;;;24.75;27.38
41690;BME280;27372;42.658;23.256;2023-03-31T14:58:11;93128.16;;;25.19;27.05
41690;BME280;27372;42.658;23.256;2023-03-31T15:00:39;93118.91;;;25.33;26.38
41690;BME280;27372;42.658;23.256;2023-03-31T15:03:08;93124.09;;;25.25;26.66
41690;BME280;27372;42.658;23.256;2023-03-31T15:05:38;93121.03;;;25.11;27.00
41690;BME280;27372;42.658;23.256;2023-03-31T15:08:13;93118.94;;;24.76;26.87
41690;BME280;27372;42.658;23.256;2023-03-31T15:10:49;93125.44;;;25.03;26.58
41690;BME280;27372;42.658;23.256;2023-03-31T15:13:33;93124.84;;;23.54;28.02
41690;BME280;27372;42.658;23.256;2023-03-31T15:16:37;93119.25;;;23.01;29.36
41690;BME280;27372;42.658;23.256;2023-03-31T15:19:23;93116.50;;;23.43;28.86
41690;BME280;27372;42.658;23.256;2023-03-31T15:21:55;93109.16;;;23.65;28.86
41690;BME280;27372;42.658;23.256;2023-03-31T15:24:31;93118.28;;;23.51;27.79
41690;BME280;27372;42.658;23.256;2023-03-31T15:27:09;93121.28;;;23.04;28.17
41690;BME280;27372;42.658;23.256;2023-03-31T15:29:49;93115.13;;;22.06;30.41
41690;BME280;27372;42.658;23.256;2023-03-31T15:32:24;93116.00;;;22.95;36.11
41690;BME280;27372;42.658;23.256;2023-03-31T15:34:51;93124.19;;;23.45;31.62
41690;BME280;27372;42.658;23.256;2023-03-31T15:37:22;93119.97;;;23.56;29.02
41690;BME280;27372;42.658;23.256;2023-03-31T15:39:48;93109.47;;;23.38;28.96
41690;BME280;27372;42.658;23.256;2023-03-31T15:42:14;93113.25;;;23.75;29.01
41690;BME280;27372;42.658;23.256;2023-03-31T15:47:36;93109.22;;;24.30;27.74
41690;BME280;27372;42.658;23.256;2023-03-31T15:52:36;93121.19;;;24.74;27.30
41690;BME280;27372;42.658;23.256;2023-03-31T15:55:31;93118.94;;;24.63;27.12
41690;BME280;27372;42.658;23.256;2023-03-31T15:58:03;93108.94;;;24.48;27.21